Time;durP1;ratioP1;P1;durP2;ratioP2;P2;SDS_P1;SDS_P2;PMS_P1;PMS_P2;Temp;Humidity;BMP_temperature;BMP_pressure;BME280_temperature;BME280_humidity;BME280_pressure;Samples;Min_cycle;Max_cycle;Signal;HPM_P1;HPM_P2
2022/08/18 00:00:48;;;;;;;6.55;4.80;;;;;;;;;;5089800;28;20075;-69
2022/08/18 00:03:34;;;;;;;6.25;4.80;;;;;;;;;;5084299;28;20028;-65
2022/08/18 00:06:20;;;;;;;6.07;4.70;;;;;;;;;;5088323;28;20081;-63
2022/08/18 00:09:06;;;;;;;7.13;4.40;;;;;;;;;;5091554;28;20024;-63
2022/08/18 00:11:52;;;;;;;7.65;5.30;;;;;;;;;;5083124;28;20474;-66
2022/08/18 00:14:37;;;;;;;7.05;4.60;;;;;;;;;;5082349;28;20059;-65
2022/08/18 00:17:23;;;;;;;6.38;4.43;;;;;;;;;;5093588;28;20425;-61
2022/08/18 00:20:10;;;;;;;7.68;5.25;;;;;;;;;;5087716;28;20440;-69
2022/08/18 00:22:56;;;;;;;5.97;4.38;;;;;;;;;;5081431;28;20035;-69
2022/08/18 00:25:42;;;;;;;6.43;4.40;;;;;;;;;;5092994;28;20433;-68
2022/08/18 00:28:27;;;;;;;6.72;4.90;;;;;;;;;;5092945;28;20028;-68
2022/08/18 00:31:13;;;;;;;6.78;4.65;;;;;;;;;;5088585;28;20078;-68
2022/08/18 00:33:59;;;;;;;6.00;4.60;;;;;;;;;;5091154;28;20360;-68
2022/08/18 00:36:45;;;;;;;6.97;5.03;;;;;;;;;;5083353;28;20044;-65
2022/08/18 00:39:33;;;;;;;6.63;4.82;;;;;;;;;;5087584;28;20095;-61
2022/08/18 00:42:23;;;;;;;4.95;4.10;;;;;;;;;;5088407;28;20020;-61
2022/08/18 00:45:11;;;;;;;5.60;4.38;;;;;;;;;;5081530;28;20594;-63
2022/08/18 00:47:57;;;;;;;5.30;4.40;;;;;;;;;;5085589;28;20032;-60
2022/08/18 00:50:45;;;;;;;6.38;4.25;;;;;;;;;;5092186;28;20116;-62
2022/08/18 00:53:34;;;;;;;7.10;4.80;;;;;;;;;;5087204;28;20027;-61
2022/08/18 00:56:23;;;;;;;5.40;4.63;;;;;;;;;;5085120;28;20024;-67
2022/08/18 00:59:24;;;;;;;5.90;4.38;;;;;;;;;;5087937;28;20028;-60
2022/08/18 01:02:14;;;;;;;7.28;4.63;;;;;;;;;;5069449;28;20028;-59
2022/08/18 01:05:04;;;;;;;5.20;3.92;;;;;;;;;;5087765;28;20027;-61
2022/08/18 01:07:49;;;;;;;;;;;;;;;;;;5086500;28;20047;-61
2022/08/18 01:10:35;;;;;;;6.57;4.80;;;;;;;;;;5082320;28;19920;-61
2022/08/18 01:13:25;;;;;;;6.53;5.05;;;;;;;;;;5086364;28;20073;-62
2022/08/18 01:22:20;;;;;;;6.13;4.60;;;;;;;;;;5090200;28;20055;-65
2022/08/18 01:28:10;;;;;;;6.10;4.25;;;;;;;;;;5088749;28;20036;-65
2022/08/18 01:30:59;;;;;;;5.55;4.60;;;;;;;;;;5080297;28;20028;-64
2022/08/18 01:33:44;;;;;;;6.20;4.43;;;;;;;;;;5088599;28;20497;-61
2022/08/18 01:36:33;;;;;;;7.90;4.88;;;;;;;;;;5090779;28;20031;-62
2022/08/18 01:39:19;;;;;;;5.65;4.13;;;;;;;;;;5088457;28;20484;-61
2022/08/18 01:42:05;;;;;;;6.40;4.63;;;;;;;;;;5089070;28;20031;-61
2022/08/18 01:44:50;;;;;;;4.85;4.18;;;;;;;;;;5089087;28;20052;-61
2022/08/18 01:47:36;;;;;;;6.03;4.40;;;;;;;;;;5088841;28;20034;-62
2022/08/18 01:50:22;;;;;;;5.63;4.57;;;;;;;;;;5083620;28;20020;-70
2022/08/18 01:53:09;;;;;;;7.35;4.60;;;;;;;;;;5086054;28;20056;-70
2022/08/18 01:55:55;;;;;;;5.45;4.40;;;;;;;;;;5088731;28;20040;-68
2022/08/18 01:58:41;;;;;;;6.60;4.85;;;;;;;;;;5083749;28;20036;-69
2022/08/18 02:01:27;;;;;;;6.03;4.88;;;;;;;;;;5086766;28;20055;-68
2022/08/18 02:04:14;;;;;;;7.55;4.97;;;;;;;;;;5086256;28;20501;-69
2022/08/18 02:07:01;;;;;;;6.93;5.13;;;;;;;;;;5084004;28;20024;-68
2022/08/18 02:09:46;;;;;;;8.27;5.05;;;;;;;;;;5083247;28;20028;-69
2022/08/18 02:12:33;;;;;;;5.72;4.72;;;;;;;;;;5082517;27;20514;-69
2022/08/18 02:15:18;;;;;;;6.75;4.45;;;;;;;;;;5087359;28;20081;-69
2022/08/18 02:18:04;;;;;;;6.43;5.15;;;;;;;;;;5079885;28;20051;-70
2022/08/18 02:20:49;;;;;;;7.32;4.95;;;;;;;;;;5090257;28;20370;-69
2022/08/18 02:23:35;;;;;;;5.78;4.65;;;;;;;;;;5089172;28;20106;-68
2022/08/18 02:26:22;;;;;;;6.57;5.03;;;;;;;;;;5085266;28;20027;-64
2022/08/18 02:29:08;;;;;;;7.47;5.10;;;;;;;;;;5089200;28;20035;-64
2022/08/18 02:31:53;;;;;;;6.68;3.90;;;;;;;;;;5087774;28;20036;-61
2022/08/18 02:34:41;;;;;;;6.20;4.45;;;;;;;;;;5089690;28;20032;-61
2022/08/18 02:37:27;;;;;;;5.78;4.68;;;;;;;;;;5083978;28;20028;-59
2022/08/18 02:40:13;;;;;;;5.65;4.30;;;;;;;;;;5081758;28;20031;-60
2022/08/18 02:43:04;;;;;;;7.07;4.63;;;;;;;;;;5084997;28;20032;-61
2022/08/18 02:45:49;;;;;;;6.10;4.70;;;;;;;;;;5086942;28;20040;-63
2022/08/18 02:48:35;;;;;;;6.28;4.43;;;;;;;;;;5083480;28;20467;-60
2022/08/18 02:51:20;;;;;;;6.03;4.80;;;;;;;;;;5084037;28;20089;-61
2022/08/18 02:54:09;;;;;;;8.60;5.45;;;;;;;;;;5083786;28;20054;-60
2022/08/18 02:56:56;;;;;;;7.93;4.63;;;;;;;;;;5090855;27;20031;-60
2022/08/18 02:59:41;;;;;;;5.78;4.57;;;;;;;;;;5085902;28;20036;-61
2022/08/18 03:02:27;;;;;;;5.65;4.25;;;;;;;;;;5082284;28;20437;-71
2022/08/18 03:05:13;;;;;;;6.03;4.78;;;;;;;;;;5088357;28;20024;-67
2022/08/18 03:07:59;;;;;;;7.53;4.82;;;;;;;;;;5089032;28;20028;-69
2022/08/18 03:10:44;;;;;;;5.78;4.72;;;;;;;;;;5085749;28;20051;-69
2022/08/18 03:13:30;;;;;;;5.75;4.68;;;;;;;;;;5082191;28;20475;-70
2022/08/18 03:16:16;;;;;;;5.72;4.40;;;;;;;;;;5087138;28;20081;-69
2022/08/18 03:19:02;;;;;;;7.47;4.85;;;;;;;;;;5085396;28;20055;-69
2022/08/18 03:21:47;;;;;;;6.35;5.20;;;;;;;;;;5064568;28;20524;-67
2022/08/18 03:24:33;;;;;;;7.57;4.72;;;;;;;;;;5078527;28;20054;-69
2022/08/18 03:27:19;;;;;;;6.57;4.80;;;;;;;;;;5086259;28;20463;-69
2022/08/18 03:30:05;;;;;;;6.85;4.80;;;;;;;;;;5079590;28;20099;-71
2022/08/18 03:32:51;;;;;;;7.18;4.85;;;;;;;;;;5091099;27;20558;-70
2022/08/18 03:35:36;;;;;;;7.85;4.90;;;;;;;;;;5089853;28;20024;-69
2022/08/18 03:38:22;;;;;;;7.07;5.00;;;;;;;;;;5088326;28;20149;-68
2022/08/18 03:41:09;;;;;;;6.05;4.60;;;;;;;;;;5086588;28;20027;-71
2022/08/18 03:43:55;;;;;;;6.03;4.65;;;;;;;;;;5088183;28;20487;-70
2022/08/18 03:46:42;;;;;;;9.55;4.68;;;;;;;;;;5080814;28;20024;-69
2022/08/18 03:49:28;;;;;;;8.60;4.78;;;;;;;;;;5085278;28;20427;-70
2022/08/18 03:52:13;;;;;;;11.77;6.38;;;;;;;;;;5085504;28;20123;-69
2022/08/18 03:54:59;;;;;;;7.00;4.78;;;;;;;;;;5085025;28;20035;-69
2022/08/18 03:57:45;;;;;;;9.32;4.63;;;;;;;;;;5084349;28;20039;-69
2022/08/18 04:00:31;;;;;;;6.78;5.30;;;;;;;;;;5077348;28;20062;-60
2022/08/18 04:03:16;;;;;;;7.03;4.72;;;;;;;;;;5081131;28;20028;-70
2022/08/18 04:06:02;;;;;;;5.80;4.57;;;;;;;;;;5077744;28;20028;-69
2022/08/18 04:08:52;;;;;;;6.00;4.85;;;;;;;;;;5083469;28;20028;-69
2022/08/18 04:11:38;;;;;;;7.93;5.55;;;;;;;;;;5088129;28;20040;-70
2022/08/18 04:14:25;;;;;;;7.05;5.55;;;;;;;;;;5079073;28;20039;-70
2022/08/18 04:17:11;;;;;;;7.45;4.90;;;;;;;;;;5085830;28;20568;-64
2022/08/18 04:19:56;;;;;;;6.70;4.55;;;;;;;;;;5071128;28;20039;-62
2022/08/18 04:22:44;;;;;;;7.22;4.88;;;;;;;;;;5076334;28;20036;-62
2022/08/18 04:25:31;;;;;;;6.75;4.85;;;;;;;;;;5076669;28;20386;-62
2022/08/18 04:28:17;;;;;;;7.30;5.20;;;;;;;;;;5090872;28;20036;-62
2022/08/18 04:31:06;;;;;;;8.90;5.18;;;;;;;;;;5080475;28;20425;-62
2022/08/18 04:33:52;;;;;;;8.77;5.45;;;;;;;;;;5088031;28;20506;-63
2022/08/18 04:36:38;;;;;;;6.03;4.60;;;;;;;;;;5087398;28;20020;-65
2022/08/18 04:39:24;;;;;;;5.22;4.28;;;;;;;;;;5081739;28;20028;-69
2022/08/18 04:42:10;;;;;;;6.80;5.30;;;;;;;;;;5087632;28;20379;-70
2022/08/18 04:44:56;;;;;;;6.57;5.03;;;;;;;;;;5086744;28;20131;-71
2022/08/18 04:47:42;;;;;;;7.88;5.40;;;;;;;;;;5078918;28;20028;-69
2022/08/18 04:50:27;;;;;;;5.85;4.60;;;;;;;;;;5074585;28;20021;-69
2022/08/18 04:56:21;;;;;;;6.45;4.60;;;;;;;;;;5087560;28;20518;-69
2022/08/18 04:59:08;;;;;;;9.05;5.00;;;;;;;;;;5081782;28;20033;-68
2022/08/18 05:01:54;;;;;;;5.32;4.40;;;;;;;;;;5084614;28;20246;-68
2022/08/18 05:04:40;;;;;;;7.97;5.28;;;;;;;;;;5081822;28;20111;-68
2022/08/18 05:07:26;;;;;;;6.78;4.88;;;;;;;;;;5083268;28;20032;-68
2022/08/18 05:10:13;;;;;;;9.00;5.40;;;;;;;;;;5083182;28;20034;-69
2022/08/18 05:12:58;;;;;;;7.00;5.10;;;;;;;;;;5082842;28;20712;-67
2022/08/18 05:15:44;;;;;;;7.53;4.97;;;;;;;;;;5080871;28;20024;-69
2022/08/18 05:18:30;;;;;;;7.57;5.20;;;;;;;;;;5082130;28;20031;-70
2022/08/18 05:21:16;;;;;;;6.30;4.82;;;;;;;;;;5077549;28;20060;-69
2022/08/18 05:24:01;;;;;;;7.43;5.07;;;;;;;;;;5086919;28;20043;-69
2022/08/18 05:26:48;;;;;;;6.55;4.43;;;;;;;;;;5085736;28;20039;-68
2022/08/18 05:29:36;;;;;;;8.15;5.03;;;;;;;;;;5081380;28;20024;-60
2022/08/18 05:32:22;;;;;;;7.97;5.27;;;;;;;;;;5086099;28;20028;-61
2022/08/18 05:35:12;;;;;;;7.78;5.30;;;;;;;;;;5090101;28;20012;-67
2022/08/18 05:38:12;;;;;;;8.43;5.15;;;;;;;;;;5084343;28;20055;-67
2022/08/18 05:41:03;;;;;;;6.63;4.43;;;;;;;;;;5089497;28;20052;-67
2022/08/18 05:43:50;;;;;;;8.40;5.15;;;;;;;;;;5089929;28;20027;-68
2022/08/18 05:46:44;;;;;;;6.85;4.75;;;;;;;;;;5090029;28;20035;-67
2022/08/18 05:49:29;;;;;;;6.10;4.47;;;;;;;;;;5069073;28;20082;-70
2022/08/18 05:52:21;;;;;;;6.45;5.32;;;;;;;;;;5088743;28;20103;-67
2022/08/18 05:58:28;;;;;;;6.60;4.45;;;;;;;;;;5077744;28;20112;-67
2022/08/18 06:01:16;;;;;;;6.53;4.85;;;;;;;;;;5091882;28;20027;-66
2022/08/18 06:04:15;;;;;;;6.68;4.78;;;;;;;;;;5086109;28;20024;-67
2022/08/18 06:07:02;;;;;;;7.88;4.40;;;;;;;;;;5091153;28;20020;-71
2022/08/18 06:09:52;;;;;;;8.38;4.25;;;;;;;;;;5084318;28;20028;-66
2022/08/18 06:12:40;;;;;;;6.07;4.90;;;;;;;;;;5082476;28;20174;-66
2022/08/18 06:15:50;;;;;;;6.00;4.55;;;;;;;;;;5082144;28;20032;-67
2022/08/18 06:18:48;;;;;;;6.75;5.38;;;;;;;;;;5090793;28;20028;-66
2022/08/18 06:21:33;;;;;;;8.40;5.38;;;;;;;;;;5078301;28;20025;-65
2022/08/18 06:24:28;;;;;;;6.22;4.95;;;;;;;;;;5082244;28;20020;-65
2022/08/18 06:27:21;;;;;;;9.30;5.25;;;;;;;;;;5089630;28;20475;-60
2022/08/18 06:30:09;;;;;;;5.95;4.65;;;;;;;;;;5074903;28;20082;-71
2022/08/18 06:32:55;;;;;;;5.97;4.67;;;;;;;;;;5078190;28;20043;-70
2022/08/18 06:35:46;;;;;;;7.15;4.88;;;;;;;;;;5088948;28;20043;-71
2022/08/18 06:38:44;;;;;;;7.80;5.53;;;;;;;;;;5082564;28;20047;-71
2022/08/18 06:41:32;;;;;;;7.00;5.22;;;;;;;;;;5085910;28;20025;-71
2022/08/18 06:44:18;;;;;;;6.93;5.30;;;;;;;;;;5085675;28;20025;-65
2022/08/18 06:47:10;;;;;;;10.25;5.78;;;;;;;;;;5087017;28;20269;-59
2022/08/18 06:49:56;;;;;;;9.05;7.15;;;;;;;;;;5080272;28;20079;-61
2022/08/18 06:52:51;;;;;;;6.43;4.85;;;;;;;;;;5088061;28;20077;-59
2022/08/18 06:55:42;;;;;;;7.80;5.95;;;;;;;;;;5085891;28;20028;-59
2022/08/18 06:58:29;;;;;;;7.45;5.47;;;;;;;;;;5080241;28;20350;-62
2022/08/18 07:01:16;;;;;;;6.97;4.93;;;;;;;;;;5085193;28;20082;-61
2022/08/18 07:04:02;;;;;;;7.05;5.25;;;;;;;;;;5084173;28;20024;-68
2022/08/18 07:06:47;;;;;;;8.05;5.07;;;;;;;;;;5084032;28;20035;-70
2022/08/18 07:09:33;;;;;;;8.00;5.38;;;;;;;;;;5077544;28;20016;-70
2022/08/18 07:12:21;;;;;;;7.97;5.38;;;;;;;;;;5078072;28;20032;-70
2022/08/18 07:15:10;;;;;;;6.85;5.00;;;;;;;;;;5079161;28;20059;-68
2022/08/18 07:17:56;;;;;;;;;;;;;;;;;;5082626;28;20039;-68
2022/08/18 07:20:46;;;;;;;5.18;4.32;;;;;;;;;;5079788;28;19919;-67
2022/08/18 07:23:37;;;;;;;8.20;4.90;;;;;;;;;;5080445;28;20024;-64
2022/08/18 07:26:23;;;;;;;7.30;4.82;;;;;;;;;;5082176;28;20024;-63
2022/08/18 07:29:14;;;;;;;6.55;4.97;;;;;;;;;;5076558;28;20028;-63
2022/08/18 07:32:04;;;;;;;7.40;4.90;;;;;;;;;;5074130;28;20083;-65
2022/08/18 07:34:53;;;;;;;6.18;4.53;;;;;;;;;;5090259;28;20518;-63
2022/08/18 07:37:58;;;;;;;5.47;4.35;;;;;;;;;;5089151;28;20080;-64
2022/08/18 07:41:03;;;;;;;7.68;4.72;;;;;;;;;;5084086;28;20036;-63
2022/08/18 07:43:52;;;;;;;6.18;4.25;;;;;;;;;;5089864;28;20039;-68
2022/08/18 07:46:42;;;;;;;6.27;4.80;;;;;;;;;;5080521;28;20032;-69
2022/08/18 07:49:32;;;;;;;7.43;4.80;;;;;;;;;;5083666;28;20277;-69
2022/08/18 07:52:17;;;;;;;10.40;4.60;;;;;;;;;;5082335;28;20039;-70
2022/08/18 07:55:10;;;;;;;6.97;4.88;;;;;;;;;;5077638;28;20031;-69
2022/08/18 07:57:55;;;;;;;5.45;4.00;;;;;;;;;;5080811;28;20082;-63
2022/08/18 08:01:02;;;;;;;7.60;5.05;;;;;;;;;;5083316;28;20479;-65
2022/08/18 08:03:50;;;;;;;6.22;4.38;;;;;;;;;;5077852;28;20032;-65
2022/08/18 08:06:44;;;;;;;6.82;4.78;;;;;;;;;;5086150;28;20050;-67
2022/08/18 08:09:37;;;;;;;6.55;4.72;;;;;;;;;;5075859;28;20029;-66
2022/08/18 08:12:25;;;;;;;8.45;5.18;;;;;;;;;;5076256;28;20032;-67
2022/08/18 08:15:29;;;;;;;6.90;4.80;;;;;;;;;;5080101;28;20081;-61
2022/08/18 08:18:27;;;;;;;9.38;5.30;;;;;;;;;;5079724;28;20032;-68
2022/08/18 08:21:21;;;;;;;6.03;4.45;;;;;;;;;;5073421;28;20052;-68
2022/08/18 08:24:33;;;;;;;7.20;4.85;;;;;;;;;;5074069;28;20031;-69
2022/08/18 08:27:23;;;;;;;7.50;5.10;;;;;;;;;;5090476;28;20024;-70
2022/08/18 08:30:10;;;;;;;8.10;5.82;;;;;;;;;;5085288;28;20054;-69
2022/08/18 08:32:56;;;;;;;11.02;5.32;;;;;;;;;;5081637;28;20123;-71
2022/08/18 08:35:46;;;;;;;7.05;5.13;;;;;;;;;;5089917;28;20475;-60
2022/08/18 08:38:34;;;;;;;8.15;5.05;;;;;;;;;;5087992;28;20021;-60
2022/08/18 08:41:20;;;;;;;8.00;4.82;;;;;;;;;;5080774;28;20047;-59
2022/08/18 08:44:06;;;;;;;10.30;5.28;;;;;;;;;;5090130;28;20457;-59
2022/08/18 08:46:55;;;;;;;9.20;5.13;;;;;;;;;;5091902;28;20036;-59
2022/08/18 08:49:41;;;;;;;;;;;;;;;;;;5092580;28;20034;-58
2022/08/18 08:52:37;;;;;;;8.77;5.57;;;;;;;;;;5089964;28;19967;-61
2022/08/18 08:55:24;;;;;;;8.80;5.78;;;;;;;;;;5081599;28;20016;-68
2022/08/18 08:58:21;;;;;;;9.38;5.88;;;;;;;;;;5087369;28;20035;-68
2022/08/18 09:01:09;;;;;;;5.55;4.50;;;;;;;;;;5092477;28;20022;-67
2022/08/18 09:04:01;;;;;;;6.80;5.25;;;;;;;;;;5091606;28;20054;-68
2022/08/18 09:07:06;;;;;;;7.68;5.68;;;;;;;;;;5085949;28;20074;-70
2022/08/18 09:09:54;;;;;;;7.53;4.88;;;;;;;;;;5087814;28;20028;-68
2022/08/18 09:12:55;;;;;;;9.57;4.90;;;;;;;;;;5087859;28;20028;-64
2022/08/18 09:15:54;;;;;;;6.22;5.05;;;;;;;;;;5081124;28;20386;-70
2022/08/18 09:18:46;;;;;;;6.32;4.88;;;;;;;;;;5088639;28;20067;-71
2022/08/18 09:21:38;;;;;;;7.10;5.18;;;;;;;;;;5068882;28;20020;-69
2022/08/18 09:24:24;;;;;;;10.05;5.30;;;;;;;;;;5085707;28;20066;-70
2022/08/18 09:27:31;;;;;;;8.52;4.72;;;;;;;;;;5082426;28;20024;-72
2022/08/18 09:30:35;;;;;;;8.55;5.35;;;;;;;;;;5092727;28;20051;-61
2022/08/18 09:33:21;;;;;;;5.63;4.38;;;;;;;;;;5083361;28;20119;-64
2022/08/18 09:36:24;;;;;;;6.90;5.57;;;;;;;;;;5092331;28;20114;-64
2022/08/18 09:42:31;;;;;;;6.60;5.00;;;;;;;;;;5073812;28;20032;-62
2022/08/18 09:45:30;;;;;;;9.60;4.95;;;;;;;;;;5090788;28;20028;-63
2022/08/18 09:48:27;;;;;;;6.22;4.70;;;;;;;;;;5079898;28;20027;-67
2022/08/18 09:51:30;;;;;;;6.90;4.38;;;;;;;;;;5091834;28;20020;-62
2022/08/18 09:54:17;;;;;;;6.07;4.60;;;;;;;;;;5087417;28;20074;-64
2022/08/18 09:57:03;;;;;;;7.07;4.97;;;;;;;;;;5090797;28;20034;-62
2022/08/18 09:59:50;;;;;;;6.88;5.03;;;;;;;;;;5084668;28;20416;-64
2022/08/18 10:02:35;;;;;;;7.00;5.07;;;;;;;;;;5070292;28;20021;-63
2022/08/18 10:05:24;;;;;;;8.70;5.88;;;;;;;;;;5078968;28;20417;-62
2022/08/18 10:08:16;;;;;;;6.78;4.80;;;;;;;;;;5088701;28;20518;-61
2022/08/18 10:11:18;;;;;;;8.02;5.20;;;;;;;;;;5085159;28;20036;-61
2022/08/18 10:14:16;;;;;;;5.93;4.80;;;;;;;;;;5076671;28;20082;-60
2022/08/18 10:17:11;;;;;;;7.53;5.95;;;;;;;;;;5087049;28;20039;-60
2022/08/18 10:20:13;;;;;;;7.50;5.13;;;;;;;;;;5076422;28;20044;-61
2022/08/18 10:22:59;;;;;;;8.52;5.95;;;;;;;;;;5073498;28;20032;-63
2022/08/18 10:25:45;;;;;;;7.32;4.55;;;;;;;;;;5081027;28;20059;-61
2022/08/18 10:28:49;;;;;;;6.00;4.68;;;;;;;;;;5079598;28;20029;-59
2022/08/18 10:31:53;;;;;;;8.27;6.03;;;;;;;;;;5080985;28;20065;-59
2022/08/18 10:34:43;;;;;;;7.72;5.53;;;;;;;;;;5078782;28;20467;-59
2022/08/18 10:37:33;;;;;;;7.90;6.07;;;;;;;;;;5090984;28;20036;-59
2022/08/18 10:40:21;;;;;;;8.55;5.55;;;;;;;;;;5083759;28;20027;-58
2022/08/18 10:43:09;;;;;;;8.18;5.72;;;;;;;;;;5085744;28;20016;-61
2022/08/18 10:45:55;;;;;;;8.73;5.85;;;;;;;;;;5086511;28;20036;-72
2022/08/18 10:48:41;;;;;;;8.43;5.93;;;;;;;;;;5082100;28;20024;-72
2022/08/18 10:51:45;;;;;;;7.32;5.50;;;;;;;;;;5084682;28;20020;-72
2022/08/18 10:54:37;;;;;;;9.07;6.72;;;;;;;;;;5096255;28;20342;-73
2022/08/18 10:57:38;;;;;;;7.18;5.68;;;;;;;;;;5081354;28;20150;-71
2022/08/18 11:00:26;;;;;;;12.52;7.35;;;;;;;;;;5087459;28;20028;-71
2022/08/18 11:03:12;;;;;;;11.73;6.00;;;;;;;;;;5088943;28;20063;-70
2022/08/18 11:06:02;;;;;;;12.10;7.60;;;;;;;;;;5075042;28;20525;-70
2022/08/18 11:08:49;;;;;;;13.55;7.15;;;;;;;;;;5090099;28;20024;-72
2022/08/18 11:11:41;;;;;;;21.65;10.75;;;;;;;;;;5080096;28;20431;-69
2022/08/18 11:14:27;;;;;;;12.32;7.28;;;;;;;;;;5074018;28;20487;-70
2022/08/18 11:17:31;;;;;;;8.82;6.45;;;;;;;;;;5087168;28;20131;-69
2022/08/18 11:20:19;;;;;;;7.90;5.82;;;;;;;;;;5087530;28;21424;-69
2022/08/18 11:23:11;;;;;;;14.48;7.57;;;;;;;;;;5078095;28;20056;-69
2022/08/18 11:26:12;;;;;;;7.82;5.93;;;;;;;;;;5085247;28;20039;-69
2022/08/18 11:28:57;;;;;;;11.60;6.40;;;;;;;;;;5083968;28;20028;-68
2022/08/18 11:31:44;;;;;;;10.23;6.53;;;;;;;;;;5085451;28;20040;-68
2022/08/18 11:34:38;;;;;;;10.00;6.05;;;;;;;;;;5084962;28;20024;-72
2022/08/18 11:37:32;;;;;;;9.52;6.45;;;;;;;;;;5084095;28;20054;-68
2022/08/18 11:40:22;;;;;;;11.25;6.32;;;;;;;;;;5081278;28;20356;-60
2022/08/18 11:43:13;;;;;;;8.68;6.72;;;;;;;;;;5089428;28;20024;-62
2022/08/18 11:46:11;;;;;;;13.52;7.40;;;;;;;;;;5084399;28;20055;-63
2022/08/18 11:48:58;;;;;;;13.73;7.70;;;;;;;;;;5085237;28;20028;-63
2022/08/18 11:52:07;;;;;;;9.65;7.25;;;;;;;;;;5086299;28;20044;-62
2022/08/18 11:54:58;;;;;;;9.57;6.97;;;;;;;;;;5090536;28;20028;-64
2022/08/18 11:57:53;;;;;;;9.43;6.75;;;;;;;;;;5089620;28;20036;-69
2022/08/18 12:00:39;;;;;;;10.38;7.15;;;;;;;;;;5086186;28;20090;-67
2022/08/18 12:03:27;;;;;;;9.45;7.60;;;;;;;;;;5085564;28;20443;-68
2022/08/18 12:06:20;;;;;;;9.18;6.82;;;;;;;;;;5085950;28;20028;-66
2022/08/18 12:09:17;;;;;;;9.15;6.25;;;;;;;;;;5085436;28;20032;-67
2022/08/18 12:12:06;;;;;;;12.05;7.30;;;;;;;;;;5089114;28;20671;-66
2022/08/18 12:14:54;;;;;;;8.68;7.05;;;;;;;;;;5088160;28;20085;-62
2022/08/18 12:17:40;;;;;;;8.85;6.80;;;;;;;;;;5077973;28;20032;-63
2022/08/18 12:20:26;;;;;;;8.57;6.80;;;;;;;;;;5082638;28;20051;-64
2022/08/18 12:23:11;;;;;;;10.43;7.00;;;;;;;;;;5080819;28;20417;-65
2022/08/18 12:25:57;;;;;;;8.70;6.72;;;;;;;;;;5091848;28;20040;-62
2022/08/18 12:28:43;;;;;;;8.98;7.07;;;;;;;;;;5092932;28;20430;-63
2022/08/18 12:31:28;;;;;;;9.43;6.90;;;;;;;;;;5099629;28;20032;-63
2022/08/18 12:34:15;;;;;;;9.10;6.15;;;;;;;;;;5091404;28;20032;-70
2022/08/18 12:37:01;;;;;;;10.23;7.30;;;;;;;;;;5092465;28;20032;-68
2022/08/18 12:39:47;;;;;;;7.30;5.90;;;;;;;;;;5090110;28;20074;-69
2022/08/18 12:42:33;;;;;;;10.23;6.68;;;;;;;;;;5089905;28;20017;-69
2022/08/18 12:45:19;;;;;;;8.48;6.20;;;;;;;;;;5093232;28;20051;-68
2022/08/18 12:48:05;;;;;;;8.63;6.45;;;;;;;;;;5089727;28;20036;-68
2022/08/18 12:50:50;;;;;;;7.03;5.95;;;;;;;;;;5087747;28;20387;-69
2022/08/18 12:53:36;;;;;;;7.78;5.40;;;;;;;;;;5088513;28;20028;-60
2022/08/18 12:56:28;;;;;;;10.25;5.63;;;;;;;;;;5087216;28;20514;-66
2022/08/18 12:59:14;;;;;;;6.70;5.72;;;;;;;;;;5088955;28;20051;-66
2022/08/18 13:02:00;;;;;;;8.88;5.75;;;;;;;;;;5092273;28;20059;-67
2022/08/18 13:04:46;;;;;;;7.80;5.80;;;;;;;;;;5092971;28;20154;-67
2022/08/18 13:07:31;;;;;;;10.30;6.22;;;;;;;;;;5089085;28;20024;-67
2022/08/18 13:10:17;;;;;;;7.85;5.82;;;;;;;;;;5085997;28;20028;-68
2022/08/18 13:13:03;;;;;;;8.30;5.85;;;;;;;;;;5085746;28;20052;-59
2022/08/18 13:15:49;;;;;;;9.73;6.93;;;;;;;;;;5085611;28;20479;-60
2022/08/18 13:18:35;;;;;;;10.05;5.90;;;;;;;;;;5086059;28;20085;-61
2022/08/18 13:21:20;;;;;;;9.88;5.57;;;;;;;;;;5088756;28;20027;-60
2022/08/18 13:24:06;;;;;;;8.60;5.55;;;;;;;;;;5085423;28;20028;-60
2022/08/18 13:26:52;;;;;;;8.55;6.15;;;;;;;;;;5090207;28;20074;-61
2022/08/18 13:29:37;;;;;;;9.70;6.13;;;;;;;;;;5081392;28;20086;-64
2022/08/18 13:32:24;;;;;;;10.40;6.32;;;;;;;;;;5092681;28;20126;-69
2022/08/18 13:35:10;;;;;;;7.45;6.10;;;;;;;;;;5090629;28;20036;-69
2022/08/18 13:37:56;;;;;;;10.02;6.47;;;;;;;;;;5092070;28;20394;-68
2022/08/18 13:40:41;;;;;;;7.63;6.05;;;;;;;;;;5087056;28;20028;-68
2022/08/18 13:43:32;;;;;;;8.50;6.18;;;;;;;;;;5093044;28;20028;-69
2022/08/18 13:46:18;;;;;;;9.35;5.97;;;;;;;;;;5088904;28;20115;-67
2022/08/18 13:49:03;;;;;;;9.07;6.57;;;;;;;;;;5091723;28;20064;-61
2022/08/18 13:51:51;;;;;;;11.45;5.95;;;;;;;;;;5078091;28;20098;-70
2022/08/18 13:54:36;;;;;;;7.57;5.43;;;;;;;;;;5086662;28;20023;-69
2022/08/18 13:57:22;;;;;;;12.50;6.78;;;;;;;;;;5085347;28;20052;-69
2022/08/18 14:00:12;;;;;;;9.93;5.97;;;;;;;;;;5078790;28;20039;-69
2022/08/18 14:02:59;;;;;;;11.68;7.22;;;;;;;;;;5064140;28;20112;-65
2022/08/18 14:05:44;;;;;;;7.47;6.22;;;;;;;;;;5065446;28;20156;-60
2022/08/18 14:08:30;;;;;;;7.28;5.70;;;;;;;;;;5077982;28;20032;-67
2022/08/18 14:11:17;;;;;;;8.43;4.90;;;;;;;;;;5081877;28;20481;-69
2022/08/18 14:14:03;;;;;;;10.75;5.68;;;;;;;;;;5082206;28;20040;-66
2022/08/18 14:16:49;;;;;;;9.23;5.95;;;;;;;;;;5085958;28;20032;-66
2022/08/18 14:28:47;;;;;;;9.85;6.35;;;;;;;;;;5091369;28;20020;-60
2022/08/18 14:31:32;;;;;;;8.07;6.07;;;;;;;;;;5086043;28;20036;-62
2022/08/18 14:34:18;;;;;;;10.70;6.03;;;;;;;;;;5089349;28;20032;-60
2022/08/18 14:37:03;;;;;;;7.22;5.35;;;;;;;;;;5090477;28;20122;-61
2022/08/18 14:39:49;;;;;;;7.78;5.55;;;;;;;;;;5085700;28;20028;-61
2022/08/18 14:42:35;;;;;;;7.50;4.68;;;;;;;;;;5086687;28;20033;-60
2022/08/18 14:45:21;;;;;;;8.80;5.50;;;;;;;;;;5090491;28;20145;-64
2022/08/18 14:48:07;;;;;;;7.80;5.40;;;;;;;;;;5080690;28;20028;-63
2022/08/18 14:50:54;;;;;;;9.20;5.85;;;;;;;;;;5082406;28;20039;-63
2022/08/18 14:53:40;;;;;;;8.13;5.60;;;;;;;;;;5087867;28;20042;-64
2022/08/18 14:56:25;;;;;;;8.13;5.53;;;;;;;;;;5083704;28;20441;-63
2022/08/18 14:59:11;;;;;;;7.13;5.40;;;;;;;;;;5080071;28;20032;-63
2022/08/18 15:01:57;;;;;;;7.85;5.00;;;;;;;;;;5079246;28;20028;-65
2022/08/18 15:04:43;;;;;;;5.75;5.15;;;;;;;;;;5083152;28;20027;-68
2022/08/18 15:07:29;;;;;;;8.95;5.90;;;;;;;;;;5089008;28;20486;-68
2022/08/18 15:10:15;;;;;;;7.10;5.03;;;;;;;;;;5076533;28;20492;-68
2022/08/18 15:13:01;;;;;;;7.75;5.20;;;;;;;;;;5076994;28;20094;-68
2022/08/18 15:15:47;;;;;;;8.63;5.72;;;;;;;;;;5081519;28;20019;-68
2022/08/18 15:18:32;;;;;;;6.78;4.95;;;;;;;;;;5081034;28;20027;-66
2022/08/18 15:27:33;;;;;;;6.50;5.25;;;;;;;;;;5087366;28;20028;-68
2022/08/18 15:30:20;;;;;;;6.68;5.13;;;;;;;;;;5088533;28;20026;-69
2022/08/18 15:33:06;;;;;;;7.97;5.65;;;;;;;;;;5079971;28;20401;-69
2022/08/18 15:35:52;;;;;;;9.55;5.47;;;;;;;;;;5088953;28;20032;-70
2022/08/18 15:38:39;;;;;;;6.55;4.90;;;;;;;;;;5089946;28;20035;-63
2022/08/18 15:41:30;;;;;;;11.82;5.40;;;;;;;;;;5087379;28;20058;-69
2022/08/18 15:44:17;;;;;;;6.53;5.07;;;;;;;;;;5084099;28;20028;-66
2022/08/18 15:47:03;;;;;;;9.23;5.70;;;;;;;;;;5082895;28;20035;-68
2022/08/18 15:49:49;;;;;;;6.20;5.25;;;;;;;;;;5087308;28;20054;-67
2022/08/18 15:52:34;;;;;;;8.20;5.45;;;;;;;;;;5085297;28;20033;-68
2022/08/18 15:55:21;;;;;;;9.00;6.07;;;;;;;;;;5085564;28;20032;-72
2022/08/18 15:58:07;;;;;;;8.63;5.93;;;;;;;;;;5087064;28;20036;-71
2022/08/18 16:00:53;;;;;;;8.63;5.55;;;;;;;;;;5077737;28;20471;-63
2022/08/18 16:03:39;;;;;;;6.97;5.38;;;;;;;;;;5070902;28;20479;-63
2022/08/18 16:06:25;;;;;;;7.15;5.63;;;;;;;;;;5076258;28;20032;-65
2022/08/18 16:09:10;;;;;;;10.60;6.05;;;;;;;;;;5080036;28;20384;-63
2022/08/18 16:11:56;;;;;;;8.05;5.72;;;;;;;;;;5079905;28;20058;-63
2022/08/18 16:14:41;;;;;;;7.10;5.30;;;;;;;;;;5079245;28;20040;-75
2022/08/18 16:17:27;;;;;;;7.53;5.32;;;;;;;;;;5084930;28;20466;-79
2022/08/18 16:20:13;;;;;;;7.57;5.45;;;;;;;;;;5088442;28;20027;-78
2022/08/18 16:22:59;;;;;;;7.55;5.28;;;;;;;;;;5083495;28;20149;-77
2022/08/18 16:25:44;;;;;;;11.20;7.45;;;;;;;;;;5083697;28;20071;-80
2022/08/18 16:28:30;;;;;;;8.95;5.72;;;;;;;;;;5086250;28;20414;-80
2022/08/18 16:31:16;;;;;;;7.22;5.20;;;;;;;;;;5086436;28;20431;-75
2022/08/18 16:34:01;;;;;;;8.43;5.95;;;;;;;;;;5084462;28;20034;-66
2022/08/18 16:36:47;;;;;;;6.95;5.05;;;;;;;;;;5085994;28;20032;-63
2022/08/18 16:39:32;;;;;;;6.55;5.32;;;;;;;;;;5085611;28;20028;-63
2022/08/18 16:42:18;;;;;;;5.72;5.00;;;;;;;;;;5084618;28;20032;-63
2022/08/18 16:45:04;;;;;;;7.63;5.32;;;;;;;;;;5083960;28;20036;-62
2022/08/18 16:47:50;;;;;;;6.25;4.57;;;;;;;;;;5085539;28;20029;-61
2022/08/18 16:50:36;;;;;;;8.65;5.68;;;;;;;;;;5084015;28;20043;-61
2022/08/18 16:53:22;;;;;;;9.55;6.18;;;;;;;;;;5092235;28;20060;-73
2022/08/18 16:56:11;;;;;;;9.45;6.05;;;;;;;;;;5087680;28;20307;-71
2022/08/18 17:05:05;;;;;;;8.60;5.35;;;;;;;;;;5085917;28;20064;-71
2022/08/18 17:07:51;;;;;;;9.05;5.40;;;;;;;;;;5068923;28;20417;-73
2022/08/18 17:10:38;;;;;;;7.53;5.88;;;;;;;;;;5089515;28;20024;-76
2022/08/18 17:13:24;;;;;;;8.27;6.22;;;;;;;;;;5087383;28;20478;-65
2022/08/18 17:16:10;;;;;;;7.68;5.57;;;;;;;;;;5079133;28;20035;-64
2022/08/18 17:18:56;;;;;;;9.93;5.88;;;;;;;;;;5080526;28;20028;-64
2022/08/18 17:21:41;;;;;;;8.25;5.60;;;;;;;;;;5081282;28;20067;-64
2022/08/18 17:24:27;;;;;;;6.95;5.80;;;;;;;;;;5089550;28;20020;-64
2022/08/18 17:27:16;;;;;;;8.05;5.60;;;;;;;;;;5085868;28;20221;-64
2022/08/18 17:30:07;;;;;;;7.60;5.35;;;;;;;;;;5088388;28;20050;-69